createdAt,value
2019-03-28T00:01:41.114Z,67.90
2019-03-28T00:04:08.776Z,67.70
2019-03-28T00:06:36.474Z,67.90
2019-03-28T00:09:07.769Z,68.10
2019-03-28T00:11:37.336Z,68.40
2019-03-28T00:14:04.886Z,68.10
2019-03-28T00:16:32.652Z,67.90
2019-03-28T00:19:00.229Z,68.50
2019-03-28T00:21:27.956Z,68.30
2019-03-28T00:24:03.483Z,68.50
2019-03-28T00:26:32.047Z,68.50
2019-03-28T00:28:59.768Z,68.60
2019-03-28T00:31:27.349Z,68.70
2019-03-28T00:33:54.971Z,68.80
2019-03-28T00:36:22.656Z,68.80
2019-03-28T00:38:50.329Z,68.70
2019-03-28T00:41:18.077Z,68.90
2019-03-28T00:43:45.598Z,69.10
2019-03-28T00:46:15.057Z,69.20
2019-03-28T00:48:42.781Z,69.30
2019-03-28T00:51:10.477Z,69.50
2019-03-28T00:53:38.064Z,69.40
2019-03-28T00:56:05.770Z,69.80
2019-03-28T00:58:34.182Z,69.70
2019-03-28T01:01:01.828Z,70.20
2019-03-28T01:03:29.593Z,69.90
2019-03-28T01:05:57.264Z,70.40
2019-03-28T01:08:24.739Z,70.70
2019-03-28T01:10:52.289Z,69.90
2019-03-28T01:13:19.880Z,70.30
2019-03-28T01:15:47.331Z,70.90
2019-03-28T01:18:15.082Z,70.40
2019-03-28T01:20:42.512Z,70.70
2019-03-28T01:23:10.045Z,70.80
2019-03-28T01:25:37.498Z,71.30
2019-03-28T01:28:04.987Z,71.20
2019-03-28T01:30:32.651Z,71.60
2019-03-28T01:33:00.340Z,71.90
2019-03-28T01:35:27.801Z,72.20
2019-03-28T01:37:55.517Z,72.30
2019-03-28T01:40:23.098Z,71.80
2019-03-28T01:42:50.800Z,71.90
2019-03-28T01:45:18.420Z,72.30
2019-03-28T01:47:46.123Z,72.20
2019-03-28T01:50:13.718Z,72.50
2019-03-28T01:52:41.336Z,72.50
2019-03-28T01:55:08.796Z,72.70
2019-03-28T01:57:36.215Z,72.80
2019-03-28T02:00:04.110Z,73.20
2019-03-28T02:02:31.619Z,72.70
2019-03-28T02:05:00.333Z,73.40
2019-03-28T02:07:27.855Z,72.60
2019-03-28T02:09:55.320Z,73.20
2019-03-28T02:12:22.911Z,73.10
2019-03-28T02:14:50.547Z,73.50
2019-03-28T02:17:18.156Z,73.50
2019-03-28T02:19:45.706Z,72.90
2019-03-28T02:22:14.582Z,73.80
2019-03-28T02:24:42.186Z,73.50
2019-03-28T02:27:09.737Z,73.10
2019-03-28T02:29:37.252Z,72.80
2019-03-28T02:32:04.890Z,73.00
2019-03-28T02:34:34.500Z,73.00
2019-03-28T02:37:02.168Z,73.30
2019-03-28T02:39:29.852Z,73.90
2019-03-28T02:41:57.603Z,74.30
2019-03-28T02:44:25.216Z,74.30
2019-03-28T02:46:52.832Z,74.20
2019-03-28T02:49:20.686Z,74.60
2019-03-28T02:51:49.332Z,74.70
2019-03-28T02:54:16.903Z,75.60
2019-03-28T02:56:44.730Z,74.70
2019-03-28T02:59:12.254Z,74.30
2019-03-28T03:01:40.486Z,74.20
2019-03-28T03:04:08.327Z,74.20
2019-03-28T03:06:37.753Z,74.60
2019-03-28T03:09:08.461Z,75.60
2019-03-28T03:11:36.068Z,76.90
2019-03-28T03:14:03.834Z,75.90
2019-03-28T03:16:31.508Z,75.50
2019-03-28T03:18:59.758Z,76.20
2019-03-28T03:21:27.510Z,74.20
2019-03-28T03:23:54.961Z,75.20
2019-03-28T03:26:22.563Z,75.60
2019-03-28T03:28:50.084Z,75.60
2019-03-28T03:31:20.872Z,74.40
2019-03-28T03:33:46.929Z,74.10
2019-03-28T03:36:14.400Z,74.90
2019-03-28T03:38:41.957Z,75.20
2019-03-28T03:41:09.504Z,75.10
2019-03-28T03:43:37.097Z,76.20
2019-03-28T03:46:04.573Z,76.70
2019-03-28T03:48:32.189Z,76.40
2019-03-28T03:50:59.652Z,76.80
2019-03-28T03:53:27.226Z,76.20
2019-03-28T03:55:54.926Z,75.60
2019-03-28T03:58:22.446Z,75.10
2019-03-28T04:00:50.097Z,75.70
2019-03-28T04:03:17.733Z,76.90
2019-03-28T04:05:45.308Z,76.40
2019-03-28T04:08:12.930Z,76.40
2019-03-28T04:10:40.936Z,77.00
2019-03-28T04:13:08.581Z,76.60
2019-03-28T04:15:38.298Z,77.30
2019-03-28T04:18:06.062Z,77.60
2019-03-28T04:20:33.716Z,77.20
2019-03-28T04:23:03.872Z,77.60
2019-03-28T04:25:31.731Z,77.20
2019-03-28T04:27:59.325Z,76.90
2019-03-28T04:30:26.972Z,77.10
2019-03-28T04:32:54.421Z,77.20
2019-03-28T04:35:22.105Z,77.20
2019-03-28T04:37:49.665Z,77.20
2019-03-28T04:40:17.220Z,77.20
2019-03-28T04:42:46.011Z,77.40
2019-03-28T04:45:13.762Z,78.00
2019-03-28T04:47:41.323Z,78.00
2019-03-28T04:50:08.961Z,77.00
2019-03-28T04:52:36.692Z,75.60
2019-03-28T04:55:04.974Z,76.00
2019-03-28T04:57:35.284Z,76.20
2019-03-28T05:00:03.298Z,76.40
2019-03-28T05:02:31.463Z,76.80
2019-03-28T05:04:59.264Z,77.40
2019-03-28T05:07:27.017Z,77.40
2019-03-28T05:09:54.527Z,76.40
2019-03-28T05:12:22.095Z,77.10
2019-03-28T05:14:49.692Z,76.40
2019-03-28T05:17:17.306Z,76.80
2019-03-28T05:19:45.031Z,77.20
2019-03-28T05:22:12.782Z,77.50
2019-03-28T05:24:40.403Z,77.70
2019-03-28T05:27:08.369Z,77.90
2019-03-28T05:29:36.072Z,77.40
2019-03-28T05:32:03.836Z,78.10
2019-03-28T05:34:31.296Z,78.10
2019-03-28T05:36:59.012Z,78.50
2019-03-28T05:39:26.750Z,77.80
2019-03-28T05:41:54.241Z,77.40
2019-03-28T05:44:22.017Z,77.50
2019-03-28T05:46:49.686Z,76.70
2019-03-28T05:49:17.361Z,77.70
2019-03-28T05:51:45.097Z,77.90
2019-03-28T05:54:12.747Z,78.00
2019-03-28T05:56:40.378Z,78.00
2019-03-28T05:59:10.997Z,77.90
2019-03-28T06:01:37.547Z,78.50
2019-03-28T06:04:05.144Z,78.10
2019-03-28T06:06:32.755Z,78.70
2019-03-28T06:09:00.810Z,78.20
2019-03-28T06:11:28.606Z,79.30
2019-03-28T06:13:56.356Z,79.00
2019-03-28T06:16:23.943Z,79.30
2019-03-28T06:18:51.635Z,79.60
2019-03-28T06:21:19.303Z,79.40
2019-03-28T06:23:46.896Z,79.30
2019-03-28T06:26:15.545Z,79.50
2019-03-28T06:28:43.217Z,79.10
2019-03-28T06:31:11.148Z,78.80
2019-03-28T06:33:38.661Z,79.00
2019-03-28T06:36:06.119Z,78.40
2019-03-28T06:38:33.628Z,79.20
2019-03-28T06:41:01.112Z,79.30
2019-03-28T06:43:28.636Z,79.70
2019-03-28T06:45:56.298Z,79.60
2019-03-28T06:48:23.829Z,80.00
2019-03-28T06:50:51.352Z,79.50
2019-03-28T06:53:18.927Z,78.40
2019-03-28T06:55:46.466Z,80.30
2019-03-28T06:58:14.041Z,79.00
2019-03-28T07:00:41.576Z,79.00
2019-03-28T07:03:09.475Z,79.00
2019-03-28T07:05:36.948Z,78.60
2019-03-28T07:08:04.576Z,78.40
2019-03-28T07:10:32.294Z,77.90
2019-03-28T07:12:59.875Z,78.70
2019-03-28T07:15:27.565Z,78.60
2019-03-28T07:17:55.394Z,78.50
2019-03-28T07:20:22.949Z,79.60
2019-03-28T07:22:50.623Z,79.80
2019-03-28T07:25:18.175Z,78.20
2019-03-28T07:27:45.702Z,77.50
2019-03-28T07:30:13.992Z,76.50
2019-03-28T07:32:43.433Z,76.90
2019-03-28T07:35:11.201Z,76.80
2019-03-28T07:37:38.792Z,76.50
2019-03-28T07:40:06.982Z,75.90
2019-03-28T07:42:34.559Z,76.50
2019-03-28T07:45:02.937Z,76.20
2019-03-28T07:47:30.578Z,76.00
2019-03-28T07:49:58.134Z,76.10
2019-03-28T07:52:25.729Z,76.20
2019-03-28T07:54:53.407Z,76.30
2019-03-28T07:57:20.980Z,74.40
2019-03-28T07:59:48.607Z,63.30
2019-03-28T08:02:16.220Z,57.80
2019-03-28T08:04:43.817Z,51.90
2019-03-28T08:07:11.445Z,51.30
2019-03-28T08:09:39.454Z,48.20
2019-03-28T08:12:21.384Z,50.30
2019-03-28T08:14:36.425Z,48.30
2019-03-28T08:17:03.861Z,46.10
2019-03-28T08:19:31.383Z,45.30
2019-03-28T08:21:58.928Z,41.90
2019-03-28T08:24:26.370Z,42.40
2019-03-28T08:26:54.364Z,42.70
2019-03-28T08:29:21.945Z,43.10
2019-03-28T08:31:51.346Z,44.10
2019-03-28T08:34:19.124Z,43.00
2019-03-28T08:36:46.847Z,41.70
2019-03-28T08:39:15.168Z,42.10
2019-03-28T08:41:42.662Z,43.10
2019-03-28T08:44:10.755Z,44.80
2019-03-28T08:46:38.531Z,45.20
2019-03-28T08:49:12.163Z,45.90
2019-03-28T08:51:43.742Z,46.80
2019-03-28T08:54:12.280Z,46.40
2019-03-28T08:56:39.783Z,46.90
2019-03-28T08:59:07.410Z,47.10
2019-03-28T09:01:35.070Z,48.50
2019-03-28T09:04:02.549Z,48.60
2019-03-28T09:06:30.276Z,48.70
2019-03-28T09:08:57.757Z,50.00
2019-03-28T09:11:25.318Z,50.30
2019-03-28T09:13:52.917Z,50.80
2019-03-28T09:16:20.595Z,51.80
2019-03-28T09:18:48.120Z,51.20
2019-03-28T09:21:15.588Z,52.20
2019-03-28T09:23:43.249Z,53.20
2019-03-28T09:26:10.794Z,53.10
2019-03-28T09:28:38.383Z,54.00
2019-03-28T09:31:18.915Z,54.10
2019-03-28T09:33:35.329Z,54.50
2019-03-28T09:36:02.824Z,54.60
2019-03-28T09:38:30.401Z,55.90
2019-03-28T09:40:57.860Z,55.50
2019-03-28T09:43:25.461Z,55.70
2019-03-28T09:45:52.891Z,55.40
2019-03-28T09:48:20.401Z,56.10
2019-03-28T09:50:48.025Z,56.90
2019-03-28T09:53:15.561Z,56.40
2019-03-28T09:55:43.192Z,56.50
2019-03-28T09:58:10.817Z,56.30
2019-03-28T10:00:38.292Z,56.20
2019-03-28T10:03:05.792Z,56.80
2019-03-28T10:05:33.421Z,56.70
2019-03-28T10:08:01.044Z,57.40
2019-03-28T10:10:28.533Z,57.40
2019-03-28T10:12:56.166Z,57.00
2019-03-28T10:15:23.798Z,57.80
2019-03-28T10:17:51.260Z,58.20
2019-03-28T10:20:18.838Z,57.00
2019-03-28T10:22:46.348Z,58.00
2019-03-28T10:25:15.846Z,57.00
2019-03-28T10:27:43.406Z,56.90
2019-03-28T10:30:12.095Z,55.60
2019-03-28T10:32:39.625Z,55.20
2019-03-28T10:35:07.341Z,55.10
2019-03-28T10:37:34.942Z,55.10
2019-03-28T10:40:02.629Z,55.10
2019-03-28T10:42:30.311Z,55.80
2019-03-28T10:44:57.907Z,56.00
2019-03-28T10:47:25.498Z,55.10
2019-03-28T10:49:52.998Z,55.10
2019-03-28T10:52:20.613Z,55.90
2019-03-28T10:54:48.266Z,56.60
2019-03-28T10:57:29.505Z,56.40
2019-03-28T10:59:45.185Z,56.90
2019-03-28T11:02:13.197Z,57.40
2019-03-28T11:04:40.917Z,57.30
2019-03-28T11:07:08.834Z,57.30
2019-03-28T11:09:36.756Z,57.50
2019-03-28T11:12:04.602Z,57.50
2019-03-28T11:14:32.504Z,57.00
2019-03-28T11:17:00.310Z,56.80
2019-03-28T11:19:28.813Z,55.70
2019-03-28T11:21:56.639Z,55.70
2019-03-28T11:24:24.565Z,56.60
2019-03-28T11:26:52.323Z,55.80
2019-03-28T11:29:19.999Z,55.50
2019-03-28T11:31:51.423Z,55.80
2019-03-28T11:34:17.237Z,55.00
2019-03-28T11:36:45.061Z,54.90
2019-03-28T11:39:13.513Z,55.70
2019-03-28T11:41:41.283Z,54.60
2019-03-28T11:44:08.837Z,55.20
2019-03-28T11:46:36.379Z,55.20
2019-03-28T11:49:04.117Z,55.70
2019-03-28T11:51:31.670Z,55.50
2019-03-28T11:53:59.386Z,55.30
2019-03-28T11:56:27.362Z,54.80
2019-03-28T11:58:56.917Z,54.30
2019-03-28T12:01:24.630Z,53.00
2019-03-28T12:03:52.284Z,53.20
2019-03-28T12:06:19.968Z,53.10
2019-03-28T12:08:47.497Z,53.10
2019-03-28T12:11:15.034Z,52.80
2019-03-28T12:13:45.161Z,52.50
2019-03-28T12:16:12.051Z,52.90
2019-03-28T12:18:39.557Z,52.30
2019-03-28T12:21:07.378Z,52.80
2019-03-28T12:23:35.002Z,52.50
2019-03-28T12:26:03.054Z,51.60
2019-03-28T12:28:30.610Z,52.10
2019-03-28T12:30:58.092Z,52.10
2019-03-28T12:33:26.070Z,51.70
2019-03-28T12:35:53.777Z,50.60
2019-03-28T12:38:22.363Z,51.10
2019-03-28T12:40:50.660Z,51.00
2019-03-28T12:43:18.347Z,50.90
2019-03-28T12:45:46.042Z,50.70
2019-03-28T12:48:13.529Z,50.60
2019-03-28T12:50:41.061Z,50.60
2019-03-28T12:53:08.757Z,49.70
2019-03-28T12:55:36.416Z,49.10
2019-03-28T12:58:04.063Z,49.40
2019-03-28T13:00:35.813Z,49.20
2019-03-28T13:03:03.282Z,49.30
2019-03-28T13:05:30.750Z,48.90
2019-03-28T13:07:58.430Z,49.00
2019-03-28T13:10:25.948Z,49.20
2019-03-28T13:12:53.614Z,49.30
2019-03-28T13:15:21.203Z,48.00
2019-03-28T13:17:48.765Z,48.40
2019-03-28T13:20:16.429Z,47.90
2019-03-28T13:22:46.027Z,47.90
2019-03-28T13:25:13.564Z,48.40
2019-03-28T13:27:41.307Z,48.90
2019-03-28T13:30:10.843Z,48.90
2019-03-28T13:32:41.929Z,48.70
2019-03-28T13:35:09.124Z,48.50
2019-03-28T13:37:36.855Z,48.70
2019-03-28T13:40:04.714Z,48.20
2019-03-28T13:42:32.342Z,47.50
2019-03-28T13:44:59.997Z,47.20
2019-03-28T13:47:27.515Z,47.00
2019-03-28T13:49:54.973Z,46.10
2019-03-28T13:52:22.818Z,44.80
2019-03-28T13:54:52.931Z,44.40
2019-03-28T13:57:20.046Z,44.40
2019-03-28T13:59:47.671Z,44.80
2019-03-28T14:02:15.136Z,45.40
2019-03-28T14:04:42.834Z,46.50
2019-03-28T14:07:10.326Z,47.00
2019-03-28T14:09:38.266Z,47.10
2019-03-28T14:12:05.838Z,47.50
2019-03-28T14:14:33.496Z,47.40
2019-03-28T14:17:01.185Z,47.90
2019-03-28T14:19:28.833Z,48.00
2019-03-28T14:21:56.758Z,48.00
2019-03-28T14:24:24.428Z,48.20
2019-03-28T14:26:52.610Z,48.10
2019-03-28T14:29:20.280Z,48.50
2019-03-28T14:31:47.895Z,48.50
2019-03-28T14:34:15.543Z,48.20
2019-03-28T14:36:43.122Z,48.00
2019-03-28T14:39:10.799Z,47.70
2019-03-28T14:41:38.552Z,48.00
2019-03-28T14:44:06.013Z,48.40
2019-03-28T14:46:33.581Z,48.50
2019-03-28T14:49:01.287Z,48.40
2019-03-28T14:51:28.940Z,48.40
2019-03-28T14:53:56.483Z,48.50
2019-03-28T14:56:24.628Z,49.00
2019-03-28T14:58:53.869Z,48.70
2019-03-28T15:01:21.377Z,48.60
2019-03-28T15:03:48.843Z,48.70
2019-03-28T15:06:16.442Z,49.60
2019-03-28T15:08:44.055Z,49.20
2019-03-28T15:11:11.524Z,49.50
2019-03-28T15:13:40.582Z,49.70
2019-03-28T15:16:08.272Z,49.80
2019-03-28T15:18:37.045Z,49.90
2019-03-28T15:21:04.667Z,50.10
2019-03-28T15:23:32.376Z,50.00
2019-03-28T15:26:00.001Z,50.20
2019-03-28T15:28:27.675Z,49.90
2019-03-28T15:30:55.790Z,49.90
2019-03-28T15:33:38.387Z,50.10
2019-03-28T15:35:54.917Z,50.40
2019-03-28T15:38:22.515Z,49.90
2019-03-28T15:40:50.043Z,50.20
2019-03-28T15:43:17.589Z,50.10
2019-03-28T15:45:45.160Z,50.20
2019-03-28T15:48:12.639Z,50.50
2019-03-28T15:50:40.177Z,50.70
2019-03-28T15:53:07.711Z,50.60
2019-03-28T15:55:35.269Z,50.50
2019-03-28T15:58:02.857Z,50.20
2019-03-28T16:00:30.341Z,50.70
2019-03-28T16:02:57.871Z,50.40
2019-03-28T16:05:25.412Z,50.70
2019-03-28T16:07:53.077Z,50.70
2019-03-28T16:10:20.813Z,51.00
2019-03-28T16:12:48.369Z,51.40
2019-03-28T16:15:15.928Z,51.80
2019-03-28T16:17:43.727Z,51.50
2019-03-28T16:20:11.696Z,51.40
2019-03-28T16:22:39.319Z,51.70
2019-03-28T16:25:06.953Z,51.50
2019-03-28T16:27:34.501Z,51.20
2019-03-28T16:30:02.280Z,51.00
2019-03-28T16:32:29.969Z,50.70
2019-03-28T16:34:57.583Z,51.30
2019-03-28T16:37:25.183Z,51.40
2019-03-28T16:39:53.105Z,52.30
2019-03-28T16:42:26.732Z,52.10
2019-03-28T16:44:55.270Z,52.10
2019-03-28T16:47:23.174Z,52.30
2019-03-28T16:49:51.501Z,52.20
2019-03-28T16:52:19.142Z,52.20
2019-03-28T16:54:46.642Z,52.30
2019-03-28T16:57:14.191Z,52.20
2019-03-28T16:59:41.762Z,52.20
2019-03-28T17:02:09.260Z,52.30
2019-03-28T17:04:36.888Z,52.20
2019-03-28T17:07:05.453Z,52.20
2019-03-28T17:09:33.592Z,52.10
2019-03-28T17:12:01.214Z,52.20
2019-03-28T17:14:28.681Z,52.10
2019-03-28T17:16:56.300Z,52.10
2019-03-28T17:19:23.840Z,52.10
2019-03-28T17:21:51.399Z,52.50
2019-03-28T17:24:19.246Z,52.10
2019-03-28T17:26:46.908Z,52.90
2019-03-28T17:29:14.441Z,52.90
2019-03-28T17:31:43.071Z,53.00
2019-03-28T17:34:10.602Z,52.60
2019-03-28T17:36:38.149Z,53.40
2019-03-28T17:39:06.524Z,53.50
2019-03-28T17:41:34.204Z,53.50
2019-03-28T17:44:01.844Z,53.50
2019-03-28T17:46:29.958Z,53.50
2019-03-28T17:48:59.582Z,53.80
2019-03-28T17:51:27.299Z,53.90
2019-03-28T17:53:56.205Z,53.90
2019-03-28T17:56:24.001Z,53.90
2019-03-28T17:58:51.975Z,54.10
2019-03-28T18:01:19.593Z,54.30
2019-03-28T18:03:47.151Z,54.50
2019-03-28T18:06:14.732Z,54.60
2019-03-28T18:08:42.652Z,54.80
2019-03-28T18:11:10.794Z,54.80
2019-03-28T18:13:38.395Z,54.90
2019-03-28T18:16:06.075Z,55.10
2019-03-28T18:18:37.199Z,55.20
2019-03-28T18:21:05.226Z,55.50
2019-03-28T18:23:33.162Z,55.80
2019-03-28T18:26:00.687Z,55.80
2019-03-28T18:28:31.341Z,55.90
2019-03-28T18:30:58.787Z,55.40
2019-03-28T18:33:29.224Z,55.80
2019-03-28T18:35:57.295Z,56.00
2019-03-28T18:38:25.402Z,56.30
2019-03-28T18:40:53.175Z,56.50
2019-03-28T18:43:21.145Z,56.50
2019-03-28T18:45:48.992Z,56.60
2019-03-28T18:48:27.328Z,56.50
2019-03-28T18:50:49.504Z,56.50
2019-03-28T18:53:17.366Z,56.90
2019-03-28T18:55:45.312Z,57.10
2019-03-28T18:58:12.975Z,56.80
2019-03-28T19:00:40.887Z,57.10
2019-03-28T19:03:10.457Z,57.30
2019-03-28T19:05:38.128Z,57.30
2019-03-28T19:08:06.615Z,57.40
2019-03-28T19:10:34.197Z,57.00
2019-03-28T19:13:04.475Z,57.40
2019-03-28T19:15:31.461Z,57.40
2019-03-28T19:17:59.693Z,58.00
2019-03-28T19:20:32.898Z,57.80
2019-03-28T19:22:58.925Z,58.00
2019-03-28T19:25:26.481Z,58.00
2019-03-28T19:27:54.106Z,58.10
2019-03-28T19:30:46.993Z,58.00
2019-03-28T19:33:14.909Z,58.30
2019-03-28T19:35:43.744Z,58.30
2019-03-28T19:38:11.286Z,58.10
2019-03-28T19:40:39.557Z,58.10
2019-03-28T19:43:19.731Z,58.00
2019-03-28T19:45:37.077Z,57.90
2019-03-28T19:48:06.467Z,58.00
2019-03-28T19:50:34.572Z,58.10
2019-03-28T19:53:02.554Z,58.10
2019-03-28T19:55:30.542Z,58.20
2019-03-28T19:57:58.594Z,58.30
2019-03-28T20:00:26.197Z,58.30
2019-03-28T20:02:53.807Z,58.70
2019-03-28T20:05:21.360Z,59.60
2019-03-28T20:07:50.069Z,59.10
2019-03-28T20:10:18.648Z,60.20
2019-03-28T20:12:46.617Z,60.20
2019-03-28T20:15:14.367Z,60.90
2019-03-28T20:17:41.921Z,61.20
2019-03-28T20:20:09.535Z,61.60
2019-03-28T20:22:37.171Z,61.20
2019-03-28T20:25:05.034Z,61.60
2019-03-28T20:27:32.977Z,61.80
2019-03-28T20:30:01.238Z,62.60
2019-03-28T20:32:29.296Z,63.20
2019-03-28T20:34:56.801Z,63.80
2019-03-28T20:37:24.367Z,63.00
2019-03-28T20:39:52.139Z,62.30
2019-03-28T20:42:21.958Z,63.10
2019-03-28T20:44:49.633Z,63.10
2019-03-28T20:47:17.314Z,63.50
2019-03-28T20:49:46.679Z,63.60
2019-03-28T20:52:14.778Z,64.10
2019-03-28T20:54:42.371Z,64.80
2019-03-28T20:57:10.201Z,64.80
2019-03-28T20:59:37.921Z,65.10
2019-03-28T21:02:05.375Z,65.90
2019-03-28T21:04:34.737Z,66.90
2019-03-28T21:07:02.814Z,67.20
2019-03-28T21:09:30.890Z,67.40
2019-03-28T21:11:59.371Z,67.20
2019-03-28T21:14:27.922Z,66.10
2019-03-28T21:16:58.302Z,66.80
2019-03-28T21:19:28.779Z,67.60
2019-03-28T21:22:00.636Z,68.20
2019-03-28T21:24:28.305Z,69.00
2019-03-28T21:26:56.030Z,68.40
2019-03-28T21:29:24.007Z,69.00
2019-03-28T21:31:52.101Z,68.90
2019-03-28T21:34:21.147Z,69.60
2019-03-28T21:36:49.162Z,69.50
2019-03-28T21:39:16.901Z,69.80
2019-03-28T21:41:47.074Z,69.50
2019-03-28T21:44:14.795Z,70.00
2019-03-28T21:46:42.921Z,69.90
2019-03-28T21:49:10.784Z,70.10
2019-03-28T21:51:38.432Z,70.50
2019-03-28T21:54:07.171Z,70.60
2019-03-28T21:56:34.869Z,70.70
2019-03-28T21:59:02.689Z,71.00
2019-03-28T22:01:32.716Z,71.30
2019-03-28T22:04:00.734Z,71.00
2019-03-28T22:06:42.049Z,71.40
2019-03-28T22:08:58.862Z,71.30
2019-03-28T22:11:27.006Z,71.60
2019-03-28T22:13:55.017Z,71.10
2019-03-28T22:16:24.251Z,71.40
2019-03-28T22:18:53.472Z,72.30
2019-03-28T22:21:21.340Z,72.10
2019-03-28T22:23:49.416Z,72.40
2019-03-28T22:26:17.415Z,72.30
2019-03-28T22:28:45.230Z,72.60
2019-03-28T22:31:14.684Z,72.10
2019-03-28T22:33:42.663Z,72.50
2019-03-28T22:36:10.390Z,72.00
2019-03-28T22:38:38.344Z,72.20
2019-03-28T22:41:09.052Z,73.10
2019-03-28T22:43:38.733Z,73.60
2019-03-28T22:46:06.350Z,73.10
2019-03-28T22:48:34.264Z,73.30
2019-03-28T22:51:02.000Z,72.80
2019-03-28T22:53:30.104Z,72.90
2019-03-28T22:55:58.883Z,73.00
2019-03-28T22:58:26.572Z,72.70
2019-03-28T23:00:55.345Z,72.90
2019-03-28T23:03:23.122Z,72.40
2019-03-28T23:05:50.918Z,72.20
2019-03-28T23:08:18.816Z,72.60
2019-03-28T23:10:47.948Z,73.00
2019-03-28T23:13:15.863Z,73.10
2019-03-28T23:15:43.695Z,73.70
2019-03-28T23:18:11.390Z,72.90
2019-03-28T23:20:39.283Z,73.80
2019-03-28T23:23:06.902Z,72.90
2019-03-28T23:25:34.754Z,73.80
2019-03-28T23:28:02.639Z,74.20
2019-03-28T23:30:35.369Z,73.60
2019-03-28T23:33:03.129Z,74.50
2019-03-28T23:35:31.006Z,75.80
2019-03-28T23:37:58.759Z,75.40
2019-03-28T23:40:26.638Z,75.00
2019-03-28T23:42:54.447Z,76.00
2019-03-28T23:45:22.071Z,75.50
2019-03-28T23:47:49.960Z,74.90
2019-03-28T23:50:17.936Z,76.00
2019-03-28T23:52:45.523Z,76.20
2019-03-28T23:55:13.703Z,75.90
2019-03-28T23:57:41.388Z,76.20
